Time;durP1;ratioP1;P1;durP2;ratioP2;P2;SDS_P1;SDS_P2;PMS_P1;PMS_P2;Temp;Humidity;BMP_temperature;BMP_pressure;BME280_temperature;BME280_humidity;BME280_pressure;Samples;Min_cycle;Max_cycle;Signal;HPM_P1;HPM_P2
2021/01/03 00:00:25;;;;;;;4.32;3.38;;;;;;;22.30;41.12;95092.09;5031856;28;20115;-74
2021/01/03 00:02:51;;;;;;;4.88;3.50;;;;;;;22.27;41.23;95090.38;5031255;28;20033;-74
2021/01/03 00:05:19;;;;;;;4.53;3.10;;;;;;;22.26;41.31;95080.72;5030084;28;20041;-73
2021/01/03 00:07:44;;;;;;;5.70;3.70;;;;;;;22.22;41.19;95088.38;5031122;28;20037;-74
2021/01/03 00:10:10;;;;;;;5.28;3.15;;;;;;;22.23;41.33;95103.47;5031682;28;20029;-74
2021/01/03 00:12:35;;;;;;;5.70;3.60;;;;;;;22.22;41.26;95091.09;5030950;28;20021;-74
2021/01/03 00:15:01;;;;;;;5.32;3.67;;;;;;;22.18;41.47;95090.63;5030674;28;20517;-73
2021/01/03 00:17:27;;;;;;;5.05;3.92;;;;;;;22.20;41.25;95099.00;5030580;28;20060;-73
2021/01/03 00:19:52;;;;;;;4.90;3.38;;;;;;;22.17;41.32;95091.84;5031176;28;20057;-74
2021/01/03 00:22:18;;;;;;;4.88;3.17;;;;;;;22.15;41.23;95088.88;5029858;28;20025;-73
2021/01/03 00:24:43;;;;;;;4.57;3.00;;;;;;;22.17;41.36;95094.56;5030129;28;20418;-73
2021/01/03 00:27:09;;;;;;;4.60;3.50;;;;;;;22.17;41.02;95104.72;5030085;28;20487;-73
2021/01/03 00:29:34;;;;;;;5.38;4.00;;;;;;;22.14;41.21;95101.00;5030508;28;20521;-74
2021/01/03 00:32:00;;;;;;;5.18;3.70;;;;;;;22.13;41.39;95088.63;5030897;28;20022;-73
2021/01/03 00:34:25;;;;;;;4.90;3.42;;;;;;;22.12;41.53;95076.28;5030789;28;20056;-74
2021/01/03 00:36:50;;;;;;;4.35;3.20;;;;;;;22.11;41.53;95080.25;5030485;28;20040;-73
2021/01/03 00:39:16;;;;;;;5.00;3.78;;;;;;;22.10;41.39;95070.59;5030593;28;20037;-72
2021/01/03 00:41:41;;;;;;;5.40;3.33;;;;;;;21.95;41.29;95045.66;5030375;28;20036;-74
2021/01/03 00:44:07;;;;;;;4.68;3.75;;;;;;;22.06;41.30;95069.38;5012819;28;20036;-74
2021/01/03 00:46:33;;;;;;;4.78;3.25;;;;;;;22.07;41.45;95074.31;5030404;28;20026;-73
2021/01/03 00:48:58;;;;;;;4.57;3.10;;;;;;;22.07;41.53;95079.75;5030395;28;20040;-74
2021/01/03 00:51:23;;;;;;;4.97;3.70;;;;;;;22.02;41.84;95072.34;5030434;28;20033;-73
2021/01/03 00:53:49;;;;;;;5.43;3.58;;;;;;;22.05;41.35;95065.19;5030164;28;20037;-74
2021/01/03 00:56:14;;;;;;;4.15;3.22;;;;;;;22.04;41.61;95069.13;5029584;28;20044;-73
2021/01/03 00:58:40;;;;;;;4.88;3.35;;;;;;;22.03;41.42;95062.22;5030071;28;20048;-74
2021/01/03 01:01:05;;;;;;;4.68;3.38;;;;;;;21.97;41.53;95045.94;5030090;28;20022;-74
2021/01/03 01:03:31;;;;;;;4.05;3.03;;;;;;;22.01;41.43;95059.97;5028718;28;20033;-73
2021/01/03 01:05:56;;;;;;;4.32;3.38;;;;;;;22.01;41.49;95054.53;5030072;28;20025;-74
2021/01/03 01:08:23;;;;;;;4.07;3.15;;;;;;;21.81;41.18;95028.91;5028945;28;20033;-73
2021/01/03 01:10:48;;;;;;;4.88;3.30;;;;;;;21.99;41.43;95057.03;5028721;28;20087;-74
2021/01/03 01:13:14;;;;;;;4.85;3.47;;;;;;;21.99;41.78;95051.59;5029731;28;20033;-74
2021/01/03 01:15:40;;;;;;;4.47;3.10;;;;;;;21.79;41.69;95004.19;5029886;28;20056;-73
2021/01/03 01:18:05;;;;;;;4.32;3.42;;;;;;;21.97;41.63;95043.22;5028287;28;20026;-73
2021/01/03 01:20:31;;;;;;;4.72;3.33;;;;;;;21.95;41.56;95032.06;5029881;28;20036;-73
2021/01/03 01:22:57;;;;;;;4.53;3.30;;;;;;;21.95;41.56;95029.34;5028362;28;20033;-74
2021/01/03 01:25:25;;;;;;;5.85;3.50;;;;;;;21.94;41.83;95027.88;5029771;28;20075;-73
2021/01/03 01:27:51;;;;;;;5.07;3.22;;;;;;;21.94;41.36;95032.56;5028485;28;20025;-73
2021/01/03 01:30:17;;;;;;;4.82;3.40;;;;;;;21.94;41.59;95027.88;5029552;28;20028;-73
2021/01/03 01:32:42;;;;;;;4.40;3.17;;;;;;;21.88;41.47;95014.81;5029935;28;20018;-74
2021/01/03 01:35:10;;;;;;;4.78;3.30;;;;;;;21.93;41.63;95026.41;5029635;28;20025;-73
2021/01/03 01:37:35;;;;;;;4.80;3.30;;;;;;;21.92;41.54;95030.34;5044546;28;20025;-73
2021/01/03 01:40:01;;;;;;;4.20;3.15;;;;;;;21.92;41.79;95020.72;5029365;28;20025;-74
2021/01/03 01:42:26;;;;;;;4.63;3.15;;;;;;;21.92;41.71;95012.56;5029469;28;20486;-74
2021/01/03 01:44:52;;;;;;;4.90;3.58;;;;;;;21.91;41.61;95005.66;5029221;28;20028;-73
2021/01/03 01:47:20;;;;;;;4.28;3.33;;;;;;;21.89;41.56;95008.88;5028658;28;20041;-73
2021/01/03 01:49:45;;;;;;;4.30;3.55;;;;;;;21.89;41.80;94999.97;5011868;28;20025;-73
2021/01/03 01:52:12;;;;;;;5.07;3.40;;;;;;;21.88;41.63;94995.78;5028190;28;20083;-73
2021/01/03 01:54:39;;;;;;;5.22;3.30;;;;;;;21.89;41.58;94994.53;5028968;28;20565;-73
2021/01/03 01:57:08;;;;;;;4.47;3.38;;;;;;;21.68;41.54;94964.22;5027732;28;20022;-73
2021/01/03 01:59:34;;;;;;;4.95;3.80;;;;;;;21.73;41.78;94971.59;5027805;28;20421;-73
2021/01/03 02:02:02;;;;;;;4.53;3.53;;;;;;;21.85;41.69;94983.91;5027659;28;20024;-73
2021/01/03 02:04:53;;;;;;;4.47;3.28;;;;;;;21.84;41.81;94973.53;5028945;28;20029;-73
2021/01/03 02:07:40;;;;;;;4.13;3.20;;;;;;;21.79;41.69;94960.72;5020487;28;20040;-73
2021/01/03 02:10:14;;;;;;;5.25;3.60;;;;;;;21.83;41.54;94972.06;5027629;28;20068;-74
2021/01/03 02:12:42;;;;;;;4.38;3.05;;;;;;;21.83;41.65;94961.19;5027666;28;20071;-74
2021/01/03 02:15:12;;;;;;;4.97;3.67;;;;;;;21.83;41.63;94961.19;5027290;28;20716;-74
2021/01/03 02:17:37;;;;;;;5.00;3.50;;;;;;;21.63;41.82;94942.50;5028430;28;20102;-73
2021/01/03 02:20:03;;;;;;;4.75;3.35;;;;;;;21.80;41.60;94962.94;5011253;28;20025;-73
2021/01/03 02:22:42;;;;;;;6.25;3.80;;;;;;;21.79;41.65;94960.72;5044002;28;20064;-74
2021/01/03 02:25:09;;;;;;;4.57;3.67;;;;;;;21.79;41.75;94960.72;5027649;28;20033;-73
2021/01/03 02:28:09;;;;;;;5.38;3.85;;;;;;;21.70;41.80;94941.97;5028922;28;20025;-73
2021/01/03 02:30:35;;;;;;;4.38;3.28;;;;;;;21.66;41.71;94928.66;5006891;28;20832;-73
2021/01/03 02:33:42;;;;;;;5.50;4.10;;;;;;;21.78;41.70;94953.78;5027736;28;20037;-74
2021/01/03 02:36:29;;;;;;;4.72;3.70;;;;;;;21.78;41.63;94943.69;5013489;28;20507;-74
2021/01/03 02:39:20;;;;;;;4.88;3.75;;;;;;;21.76;41.67;94950.84;5029014;28;20475;-73
2021/01/03 02:41:46;;;;;;;4.60;3.58;;;;;;;21.66;41.73;94941.50;5013208;28;20399;-74
2021/01/03 02:44:11;;;;;;;5.10;3.70;;;;;;;21.74;41.73;94947.91;5028424;28;20096;-73
2021/01/03 02:46:40;;;;;;;4.85;3.60;;;;;;;21.70;41.69;94961.00;5028680;28;20487;-73
2021/01/03 02:49:06;;;;;;;4.97;3.33;;;;;;;21.73;41.75;94963.44;5011684;28;20430;-74
2021/01/03 02:51:36;;;;;;;4.97;4.13;;;;;;;21.69;41.69;94956.81;5027348;28;20037;-74
2021/01/03 02:54:01;;;;;;;4.97;3.70;;;;;;;21.73;41.73;94962.72;5028774;28;20029;-74
2021/01/03 02:56:27;;;;;;;4.32;3.65;;;;;;;21.69;41.81;94956.81;5028294;28;20476;-73
2021/01/03 02:58:52;;;;;;;5.28;3.53;;;;;;;21.55;41.82;94938.81;5030413;28;20491;-73
2021/01/03 03:01:17;;;;;;;5.03;3.80;;;;;;;21.47;41.77;94935.84;5031193;28;20025;-74
2021/01/03 03:03:43;;;;;;;4.20;3.00;;;;;;;21.71;41.88;94970.63;5014935;28;20445;-74
2021/01/03 03:06:08;;;;;;;4.80;3.60;;;;;;;21.70;41.73;94969.16;5032313;28;20569;-72
2021/01/03 03:08:34;;;;;;;4.97;3.85;;;;;;;21.67;41.86;94959.28;5031291;28;20506;-72
2021/01/03 03:10:59;;;;;;;4.38;3.63;;;;;;;21.56;41.48;94953.88;5032158;28;20032;-73
2021/01/03 03:13:25;;;;;;;5.25;4.03;;;;;;;21.69;41.79;94978.56;5032153;28;20044;-72
2021/01/03 03:15:50;;;;;;;4.65;3.60;;;;;;;21.69;41.76;94967.69;5031752;28;20060;-72
2021/01/03 03:18:16;;;;;;;5.60;3.85;;;;;;;21.64;41.81;94971.91;5032204;28;20036;-72
2021/01/03 03:20:41;;;;;;;5.03;3.78;;;;;;;21.68;41.52;94966.19;5032295;28;20033;-73
2021/01/03 03:23:06;;;;;;;4.28;3.65;;;;;;;21.68;41.57;94963.47;5031740;28;20056;-72
2021/01/03 03:25:32;;;;;;;4.82;3.83;;;;;;;21.52;41.95;94932.41;5031799;28;20536;-73
2021/01/03 03:27:57;;;;;;;5.43;3.97;;;;;;;21.67;41.82;94959.28;5031832;28;20033;-73
2021/01/03 03:30:23;;;;;;;4.60;3.78;;;;;;;21.67;42.10;94970.13;5031529;28;20083;-72
2021/01/03 03:32:55;;;;;;;5.38;3.67;;;;;;;21.63;41.89;94953.38;5031830;28;20029;-72
2021/01/03 03:35:30;;;;;;;5.57;4.00;;;;;;;21.63;41.76;94953.38;5031589;28;20551;-73
2021/01/03 03:37:56;;;;;;;4.43;3.72;;;;;;;21.65;41.81;94956.31;5030243;28;20407;-73
2021/01/03 03:40:22;;;;;;;4.70;3.40;;;;;;;21.60;41.68;94948.94;5013822;28;20037;-73
2021/01/03 03:42:47;;;;;;;5.10;3.50;;;;;;;21.36;41.78;94912.66;5030617;28;20119;-72
2021/01/03 03:45:13;;;;;;;4.45;3.58;;;;;;;21.55;41.93;94941.53;5030422;28;20033;-73
2021/01/03 03:47:39;;;;;;;4.45;3.35;;;;;;;21.61;41.84;94955.81;5031547;28;20402;-73
2021/01/03 03:50:06;;;;;;;4.93;4.00;;;;;;;21.65;41.81;94953.59;5031704;28;20026;-72
2021/01/03 03:52:32;;;;;;;5.35;3.90;;;;;;;21.52;41.88;94937.09;5031514;28;20438;-72
2021/01/03 03:54:57;;;;;;;4.30;3.22;;;;;;;21.65;41.77;94946.19;5030028;28;20083;-73
2021/01/03 03:57:23;;;;;;;4.20;3.10;;;;;;;21.78;41.69;94951.06;5031218;28;20022;-73
2021/01/03 03:59:48;;;;;;;4.80;3.53;;;;;;;21.68;41.65;94928.16;5031295;28;20029;-73
2021/01/03 04:02:14;;;;;;;4.55;3.60;;;;;;;21.87;41.57;94951.56;5030263;28;20036;-72
2021/01/03 04:04:39;;;;;;;4.38;3.50;;;;;;;21.92;41.64;94954.22;5031531;28;20037;-72
2021/01/03 04:07:04;;;;;;;4.20;3.40;;;;;;;21.96;41.61;94943.84;5029881;28;20028;-73
2021/01/03 04:09:30;;;;;;;4.32;3.00;;;;;;;22.00;41.41;94949.75;5030850;28;20091;-73
2021/01/03 04:11:56;;;;;;;4.93;3.67;;;;;;;22.05;41.37;94950.97;5030065;28;20025;-73
2021/01/03 04:14:23;;;;;;;4.32;3.47;;;;;;;22.08;41.26;94950.69;5031236;28;20056;-73
2021/01/03 04:16:50;;;;;;;5.03;3.40;;;;;;;22.10;41.30;94942.78;5029539;28;20041;-72
2021/01/03 04:19:15;;;;;;;4.72;3.70;;;;;;;22.14;41.16;94956.13;5031218;28;20094;-73
2021/01/03 04:21:49;;;;;;;4.90;3.38;;;;;;;22.13;41.21;94941.78;5031032;28;20033;-73
2021/01/03 04:24:14;;;;;;;4.35;3.50;;;;;;;22.20;41.14;94952.13;5031081;28;20025;-72
2021/01/03 04:26:40;;;;;;;4.57;3.83;;;;;;;22.22;41.09;94949.66;5031083;28;20164;-73
2021/01/03 04:29:05;;;;;;;4.20;3.22;;;;;;;22.25;40.96;94954.09;5029562;28;20037;-72
2021/01/03 04:31:31;;;;;;;4.53;3.17;;;;;;;22.27;41.08;94959.78;5030589;28;20025;-73
2021/01/03 04:33:56;;;;;;;4.68;3.72;;;;;;;22.25;40.98;94947.94;5030699;28;20032;-72
2021/01/03 04:36:22;;;;;;;4.00;3.38;;;;;;;22.33;40.94;94960.50;5030345;28;20032;-73
2021/01/03 04:38:47;;;;;;;5.22;3.67;;;;;;;22.34;40.96;94961.97;5030678;28;20037;-73
2021/01/03 04:41:23;;;;;;;4.15;3.25;;;;;;;22.36;40.87;94969.63;5031074;28;20030;-73
2021/01/03 04:43:49;;;;;;;4.75;3.53;;;;;;;22.38;40.94;94967.88;5014244;28;20513;-73
2021/01/03 04:46:15;;;;;;;4.35;3.60;;;;;;;22.39;40.89;94966.66;5030721;28;20037;-72
2021/01/03 04:48:40;;;;;;;4.45;3.35;;;;;;;22.41;40.93;94966.88;5013369;28;20037;-73
2021/01/03 04:51:13;;;;;;;4.18;3.47;;;;;;;22.41;40.69;94961.44;5025750;28;20034;-73
2021/01/03 04:53:55;;;;;;;4.22;3.30;;;;;;;22.39;40.54;94953.06;5009737;28;20107;-73
2021/01/03 04:56:47;;;;;;;4.50;3.15;;;;;;;22.29;40.88;94938.25;5010547;28;20036;-73
2021/01/03 04:59:35;;;;;;;4.63;3.45;;;;;;;22.40;40.93;94959.94;5009780;28;20025;-73
2021/01/03 05:02:25;;;;;;;4.97;3.78;;;;;;;22.45;40.70;94964.59;5009192;28;20033;-73
2021/01/03 05:05:37;;;;;;;4.20;3.30;;;;;;;22.45;40.74;94961.88;5025292;28;20040;-73
2021/01/03 05:08:03;;;;;;;3.88;2.97;;;;;;;22.47;40.83;94976.47;5004729;28;20458;-73
2021/01/03 05:10:28;;;;;;;5.75;3.85;;;;;;;22.49;40.62;94970.53;5010392;28;20521;-73
2021/01/03 05:13:28;;;;;;;4.22;3.35;;;;;;;22.51;40.65;94971.50;5010400;28;20049;-73
2021/01/03 05:15:53;;;;;;;4.40;3.50;;;;;;;22.53;40.84;94974.47;5009743;28;20054;-73
2021/01/03 05:18:19;;;;;;;4.57;3.60;;;;;;;22.54;40.91;94964.31;5010075;28;20273;-73
2021/01/03 05:20:57;;;;;;;4.45;3.42;;;;;;;22.54;40.74;94964.31;5009657;28;20037;-73
2021/01/03 05:23:25;;;;;;;5.45;3.70;;;;;;;22.40;40.65;94949.06;5013318;28;20571;-73
2021/01/03 05:25:51;;;;;;;4.03;3.53;;;;;;;22.55;40.70;94971.25;5010006;28;20419;-73
2021/01/03 05:28:28;;;;;;;4.40;3.50;;;;;;;22.39;40.38;94947.59;5013213;28;20036;-72
2021/01/03 05:30:53;;;;;;;3.83;3.28;;;;;;;22.58;40.54;94970.22;5028596;28;20029;-74
2021/01/03 05:33:26;;;;;;;4.80;3.67;;;;;;;22.62;40.47;94965.25;5028294;28;20472;-71
2021/01/03 05:35:52;;;;;;;5.00;3.50;;;;;;;22.53;40.82;94951.97;5016605;28;20491;-71
2021/01/03 05:38:38;;;;;;;4.47;3.65;;;;;;;22.68;40.61;94977.59;5008578;28;20044;-70
2021/01/03 05:41:15;;;;;;;5.22;3.40;;;;;;;22.55;40.31;94954.91;5009712;28;20088;-71
2021/01/03 05:43:41;;;;;;;4.50;3.47;;;;;;;22.67;40.67;94967.19;5028550;28;20029;-71
2021/01/03 05:46:23;;;;;;;4.10;3.30;;;;;;;22.74;40.33;94974.84;5029085;28;20032;-70
2021/01/03 05:49:03;;;;;;;4.22;3.60;;;;;;;22.75;40.60;94973.56;5027377;28;20029;-74
2021/01/03 05:51:46;;;;;;;6.32;3.33;;;;;;;22.79;40.43;94974.78;5027118;28;20029;-68
2021/01/03 05:54:35;;;;;;;5.07;3.35;;;;;;;22.83;40.60;94974.53;5018656;28;20029;-69
2021/01/03 05:57:09;;;;;;;4.37;3.60;;;;;;;22.86;40.54;94978.97;5016783;28;20042;-71
2021/01/03 05:59:37;;;;;;;4.18;3.58;;;;;;;22.83;40.79;94985.41;4988211;28;20679;-77
2021/01/03 06:02:09;;;;;;;4.22;3.33;;;;;;;22.85;40.87;94982.91;5022294;28;20052;-71
2021/01/03 06:04:34;;;;;;;4.53;3.58;;;;;;;22.90;40.83;94980.88;5009780;28;20125;-71
2021/01/03 06:07:03;;;;;;;3.88;3.30;;;;;;;22.90;40.48;94980.88;5010153;28;20543;-70
2021/01/03 06:09:34;;;;;;;4.70;3.67;;;;;;;22.97;40.44;94972.22;5024404;28;20024;-74
2021/01/03 06:12:02;;;;;;;4.20;3.45;;;;;;;23.07;40.40;94989.69;5011002;28;20037;-72
2021/01/03 06:14:28;;;;;;;4.47;3.63;;;;;;;23.16;40.17;94985.91;5011013;28;20036;-71
2021/01/03 06:16:54;;;;;;;4.03;3.30;;;;;;;23.26;40.26;94984.31;5017773;28;20041;-74
2021/01/03 06:19:46;;;;;;;4.43;3.40;;;;;;;23.34;40.29;94994.16;5042448;28;20576;-67
2021/01/03 06:22:39;;;;;;;4.25;3.13;;;;;;;23.47;39.96;94988.84;5026089;28;20080;-68
2021/01/03 06:25:30;;;;;;;3.97;3.40;;;;;;;23.61;39.48;94993.16;5003995;28;20041;-69
2021/01/03 06:28:01;;;;;;;5.68;3.85;;;;;;;23.71;39.50;94997.06;5033829;28;20129;-69
2021/01/03 06:30:27;;;;;;;4.75;3.50;;;;;;;23.81;39.13;95000.91;5025155;28;20033;-68
2021/01/03 06:33:11;;;;;;;4.30;3.72;;;;;;;23.92;39.00;94999.53;5019094;28;20034;-68
2021/01/03 06:35:41;;;;;;;4.90;3.40;;;;;;;24.01;39.31;95004.66;5031129;28;20116;-67
2021/01/03 06:38:41;;;;;;;4.30;3.85;;;;;;;24.12;38.97;95015.44;5032595;28;20521;-68
2021/01/03 06:41:50;;;;;;;4.30;3.20;;;;;;;24.25;38.74;95001.88;5032437;28;20033;-68
2021/01/03 06:44:39;;;;;;;4.95;3.60;;;;;;;24.38;38.56;94999.28;5021798;28;20052;-68
2021/01/03 06:47:37;;;;;;;4.30;3.60;;;;;;;24.49;38.32;94993.66;5027941;28;20084;-73
2021/01/03 06:50:31;;;;;;;4.32;3.63;;;;;;;24.57;38.19;95011.69;5027264;28;20047;-68
2021/01/03 06:53:39;;;;;;;4.10;3.33;;;;;;;24.67;37.75;95012.03;5032163;28;20040;-69
2021/01/03 06:56:10;;;;;;;4.78;3.67;;;;;;;24.74;37.53;95014.16;5016491;28;20504;-69
2021/01/03 06:58:54;;;;;;;3.88;3.30;;;;;;;24.83;37.36;95020.72;5032113;28;20115;-70
2021/01/03 07:01:30;;;;;;;4.95;3.75;;;;;;;24.87;37.64;95012.22;5032186;28;20029;-68
2021/01/03 07:03:57;;;;;;;4.63;3.60;;;;;;;24.87;37.71;95004.78;5032346;28;20044;-72
2021/01/03 07:06:30;;;;;;;4.18;3.50;;;;;;;25.00;37.15;95020.53;5030633;28;20021;-73
2021/01/03 07:08:55;;;;;;;3.80;3.13;;;;;;;25.07;37.27;95004.25;5030586;28;20025;-70
2021/01/03 07:11:45;;;;;;;4.70;3.65;;;;;;;25.12;37.17;95000.69;5030637;28;20029;-71
2021/01/03 07:14:23;;;;;;;4.50;3.42;;;;;;;25.17;37.06;95010.81;5031782;28;20060;-72
2021/01/03 07:16:55;;;;;;;5.07;3.85;;;;;;;25.21;36.84;95008.50;5033422;28;20084;-71
2021/01/03 07:19:29;;;;;;;5.38;3.78;;;;;;;25.29;36.80;95006.66;5034743;28;20577;-71
2021/01/03 07:22:04;;;;;;;4.63;3.65;;;;;;;25.28;36.61;94996.22;5034059;28;20026;-73
2021/01/03 07:24:51;;;;;;;5.20;3.80;;;;;;;25.30;36.87;94999.91;5033392;28;20032;-74
2021/01/03 07:27:25;;;;;;;4.97;3.65;;;;;;;25.36;36.51;94981.41;5032152;28;20437;-71
2021/01/03 07:29:56;;;;;;;6.82;4.00;;;;;;;25.39;36.49;94980.38;5026724;28;20171;-72
2021/01/03 07:32:24;;;;;;;5.10;3.92;;;;;;;25.43;36.39;94975.34;5026377;28;20033;-70
2021/01/03 07:34:50;;;;;;;4.45;3.75;;;;;;;25.49;36.61;94989.66;5031009;28;20502;-69
2021/01/03 07:37:18;;;;;;;4.35;3.78;;;;;;;25.54;36.27;94986.06;5030974;28;20025;-71
2021/01/03 07:39:59;;;;;;;4.78;3.95;;;;;;;25.54;36.15;94981.31;5031757;28;20164;-68
2021/01/03 07:42:25;;;;;;;5.63;4.25;;;;;;;25.62;36.23;94981.44;5031392;28;20029;-72
2021/01/03 07:44:51;;;;;;;4.88;3.63;;;;;;;25.65;36.33;94985.91;5030393;28;20402;-71
2021/01/03 07:47:52;;;;;;;5.03;3.95;;;;;;;25.68;35.91;94984.84;5031586;28;20032;-69
2021/01/03 07:50:35;;;;;;;4.57;3.78;;;;;;;25.70;36.08;94976.88;5009040;28;20554;-70
2021/01/03 07:53:29;;;;;;;4.97;3.85;;;;;;;25.74;35.77;94980.00;5022122;28;20031;-69
2021/01/03 07:56:11;;;;;;;4.88;4.10;;;;;;;25.78;36.00;94994.13;5024017;28;20014;-71
2021/01/03 07:58:37;;;;;;;5.40;4.20;;;;;;;25.81;35.83;94978.13;5010936;28;20033;-72
2021/01/03 08:01:02;;;;;;;4.57;4.07;;;;;;;25.83;35.82;94981.06;5029931;28;20486;-71
2021/01/03 08:03:27;;;;;;;4.82;4.25;;;;;;;25.71;35.70;94973.63;5013003;28;20033;-72
2021/01/03 08:06:05;;;;;;;4.85;3.70;;;;;;;25.73;35.62;94975.81;5012771;28;20082;-72
2021/01/03 08:08:30;;;;;;;4.60;4.07;;;;;;;25.87;35.65;94997.94;5024602;28;20034;-72
2021/01/03 08:11:14;;;;;;;4.38;3.78;;;;;;;25.93;35.64;95001.28;5011609;28;20034;-72
2021/01/03 08:13:44;;;;;;;5.35;4.28;;;;;;;25.91;35.28;95009.28;5026939;28;20022;-74
2021/01/03 08:16:10;;;;;;;4.88;4.15;;;;;;;25.96;35.80;95030.34;5029236;28;20515;-72
2021/01/03 08:18:39;;;;;;;4.78;3.95;;;;;;;25.98;35.35;95030.56;5019675;28;20037;-74
2021/01/03 08:21:16;;;;;;;4.60;3.92;;;;;;;25.88;35.60;95015.78;5026583;28;20044;-74
2021/01/03 08:23:42;;;;;;;5.20;4.22;;;;;;;26.05;35.34;95040.13;5026964;28;20025;-72
2021/01/03 08:26:08;;;;;;;5.15;3.95;;;;;;;26.11;35.40;95025.06;5023883;28;20025;-72
2021/01/03 08:28:42;;;;;;;5.13;4.18;;;;;;;26.09;35.52;95046.75;5028702;28;20036;-73
2021/01/03 08:31:12;;;;;;;5.10;4.10;;;;;;;26.11;35.35;95060.63;5026290;28;20021;-68
2021/01/03 08:33:38;;;;;;;5.78;3.97;;;;;;;26.11;35.23;95033.28;5023475;28;20013;-70
2021/01/03 08:36:29;;;;;;;4.63;4.20;;;;;;;26.12;35.33;95045.69;5021204;28;20064;-71
2021/01/03 08:39:01;;;;;;;4.90;4.15;;;;;;;26.14;35.25;95043.16;5030356;28;20039;-71
2021/01/03 08:41:28;;;;;;;5.22;4.22;;;;;;;25.89;35.19;95014.53;5028755;28;20041;-71
2021/01/03 08:43:53;;;;;;;5.32;4.20;;;;;;;26.15;35.20;95050.13;5008898;28;20021;-73
2021/01/03 08:46:28;;;;;;;5.13;4.28;;;;;;;26.05;35.23;95040.88;5022268;28;20418;-74
2021/01/03 08:49:01;;;;;;;5.57;4.25;;;;;;;26.14;34.88;95043.16;5012693;28;20022;-74
2021/01/03 08:51:27;;;;;;;6.75;4.82;;;;;;;26.24;35.03;95065.41;5024924;28;20529;-74
2021/01/03 08:54:03;;;;;;;5.53;4.20;;;;;;;26.21;35.14;95053.50;5027992;28;20018;-73
2021/01/03 08:56:35;;;;;;;5.40;3.88;;;;;;;26.10;35.09;95053.72;5028747;28;20024;-72
2021/01/03 08:59:01;;;;;;;5.00;4.00;;;;;;;26.26;34.98;95060.13;5029596;28;20517;-72
2021/01/03 09:01:31;;;;;;;4.38;3.78;;;;;;;26.23;34.97;95067.38;5028132;28;20030;-72
2021/01/03 09:03:59;;;;;;;5.30;4.00;;;;;;;26.27;35.01;95048.66;5029291;28;20021;-72
2021/01/03 09:06:25;;;;;;;5.22;4.10;;;;;;;26.29;34.81;95076.25;5012100;28;20120;-72
2021/01/03 09:08:50;;;;;;;5.25;4.30;;;;;;;26.31;34.71;95073.75;5026257;28;20112;-72
2021/01/03 09:11:24;;;;;;;5.63;4.65;;;;;;;26.26;34.80;95071.81;5029544;28;20079;-72
2021/01/03 09:14:12;;;;;;;5.45;4.25;;;;;;;26.33;34.60;95065.75;5011495;28;20031;-71
2021/01/03 09:16:55;;;;;;;5.75;4.57;;;;;;;26.29;35.00;95087.97;5025308;28;20507;-73
2021/01/03 09:19:22;;;;;;;4.85;3.85;;;;;;;26.27;34.76;95062.34;5023245;28;20179;-73
2021/01/03 09:22:00;;;;;;;5.07;4.30;;;;;;;26.17;34.93;95036.63;5027191;28;20060;-77
2021/01/03 09:24:30;;;;;;;5.55;4.20;;;;;;;26.32;34.82;95064.25;5026159;28;20045;-75
2021/01/03 09:26:57;;;;;;;4.78;4.18;;;;;;;26.30;34.87;95044.88;5029256;28;20071;-77
2021/01/03 09:29:27;;;;;;;4.82;4.10;;;;;;;26.36;34.78;95053.72;5026017;28;20018;-74
2021/01/03 09:32:06;;;;;;;4.70;4.20;;;;;;;26.38;34.92;95053.94;5021043;28;20410;-76
2021/01/03 09:35:00;;;;;;;5.03;3.97;;;;;;;26.39;34.55;95047.19;5025896;28;20071;-72
2021/01/03 09:37:27;;;;;;;4.70;4.20;;;;;;;26.41;34.81;95055.63;4999665;28;20117;-71
2021/01/03 09:40:32;;;;;;;5.65;4.57;;;;;;;26.44;34.61;95060.03;5020692;28;20046;-71
2021/01/03 09:43:17;;;;;;;5.07;3.92;;;;;;;26.47;34.79;95056.25;4976343;28;20069;-74
2021/01/03 09:45:49;;;;;;;4.80;4.30;;;;;;;26.46;34.48;95041.09;5011893;28;20419;-75
2021/01/03 09:48:36;;;;;;;5.07;4.15;;;;;;;26.50;34.54;95049.72;5024953;28;20034;-76
2021/01/03 09:51:28;;;;;;;4.97;4.05;;;;;;;26.45;34.45;95039.59;5022524;28;20521;-72
2021/01/03 09:54:02;;;;;;;5.07;4.30;;;;;;;26.51;34.81;95042.97;5030520;28;20087;-75
2021/01/03 09:56:32;;;;;;;4.65;4.15;;;;;;;26.54;34.52;95055.59;5023937;28;20022;-75
2021/01/03 09:58:58;;;;;;;4.85;4.35;;;;;;;26.55;34.52;95030.44;5020124;28;20033;-75
2021/01/03 10:01:31;;;;;;;5.22;4.13;;;;;;;26.50;34.55;95025.81;5027838;28;20080;-77
2021/01/03 10:04:11;;;;;;;5.60;4.68;;;;;;;26.46;34.70;95035.63;5022081;28;20033;-81
2021/01/03 10:06:37;;;;;;;5.10;4.40;;;;;;;26.45;34.41;95006.75;5024109;28;20090;-78
2021/01/03 10:09:24;;;;;;;4.93;4.25;;;;;;;26.62;34.71;95040.00;5029124;28;20461;-75
2021/01/03 10:11:49;;;;;;;4.63;3.92;;;;;;;26.58;34.94;95025.91;5026013;28;20140;-75
2021/01/03 10:14:30;;;;;;;5.57;4.45;;;;;;;26.59;34.91;95027.34;5026990;28;20045;-75
2021/01/03 10:16:56;;;;;;;5.63;4.28;;;;;;;26.63;34.80;95033.25;5027259;28;20041;-75
2021/01/03 10:19:23;;;;;;;4.43;3.85;;;;;;;26.51;35.32;94999.16;5027417;28;20065;-76
2021/01/03 10:21:49;;;;;;;5.18;4.10;;;;;;;26.66;35.23;95016.50;5008571;28;20087;-72
2021/01/03 10:24:24;;;;;;;5.43;4.40;;;;;;;26.70;35.15;95016.19;5026028;28;20030;-77
2021/01/03 10:27:02;;;;;;;6.22;4.70;;;;;;;26.78;35.20;95036.91;5020882;28;20030;-75
2021/01/03 10:29:28;;;;;;;5.53;3.88;;;;;;;26.79;35.38;95019.94;5021029;28;20021;-73
2021/01/03 10:31:53;;;;;;;5.28;3.85;;;;;;;26.84;35.26;95027.28;5016000;28;20596;-72
2021/01/03 10:34:19;;;;;;;5.40;4.38;;;;;;;26.82;35.21;94996.94;5019433;28;20014;-73
2021/01/03 10:36:45;;;;;;;5.38;4.47;;;;;;;26.79;35.18;95008.25;5025016;28;20132;-74
2021/01/03 10:39:11;;;;;;;6.05;4.20;;;;;;;26.92;35.08;95011.72;5026433;28;20025;-73
2021/01/03 10:41:37;;;;;;;5.05;4.20;;;;;;;26.94;35.34;95008.44;5024412;28;20044;-71
2021/01/03 10:44:03;;;;;;;4.72;4.00;;;;;;;26.93;35.24;95021.38;5025997;28;20048;-72
2021/01/03 10:46:28;;;;;;;5.03;4.13;;;;;;;26.83;35.57;94986.72;5025131;28;20036;-71
2021/01/03 10:48:54;;;;;;;5.38;3.90;;;;;;;26.95;35.34;95016.13;5022729;28;20033;-71
2021/01/03 10:51:28;;;;;;;5.22;4.38;;;;;;;26.98;34.96;95004.09;5010620;28;20060;-72
2021/01/03 10:53:54;;;;;;;5.53;4.30;;;;;;;26.95;34.92;94996.94;5024361;28;20017;-71
2021/01/03 10:56:19;;;;;;;6.50;4.95;;;;;;;26.83;35.15;94987.47;5024397;28;20083;-77
2021/01/03 10:58:45;;;;;;;5.07;4.20;;;;;;;26.91;34.63;94993.78;4996130;28;20041;-76
2021/01/03 11:01:10;;;;;;;5.38;4.22;;;;;;;26.98;34.99;94993.13;5011270;28;20036;-76
2021/01/03 11:03:35;;;;;;;5.32;4.30;;;;;;;27.08;34.81;94985.91;5010504;28;20026;-73
2021/01/03 11:06:01;;;;;;;5.13;4.18;;;;;;;27.12;34.45;94986.31;5008808;28;20029;-73
2021/01/03 11:08:26;;;;;;;5.22;4.28;;;;;;;27.17;34.84;94982.69;5007992;28;20026;-71
2021/01/03 11:10:52;;;;;;;5.57;4.07;;;;;;;27.08;34.69;94969.44;5009220;28;20029;-71
2021/01/03 11:13:17;;;;;;;5.63;4.15;;;;;;;27.10;35.17;94975.16;5016841;28;20021;-75
2021/01/03 11:15:43;;;;;;;5.05;4.28;;;;;;;27.03;34.92;94984.03;5016753;28;20100;-70
2021/01/03 11:18:08;;;;;;;5.13;3.95;;;;;;;27.11;34.79;94990.31;5020636;28;20073;-72
2021/01/03 11:20:35;;;;;;;4.82;3.92;;;;;;;27.16;35.29;94983.97;5013645;28;20033;-76
2021/01/03 11:23:01;;;;;;;5.72;4.43;;;;;;;27.04;34.58;94962.81;5019291;28;20041;-74
2021/01/03 11:25:26;;;;;;;6.15;4.35;;;;;;;27.21;34.96;94976.91;5019371;28;20029;-72
2021/01/03 11:27:51;;;;;;;5.68;4.13;;;;;;;27.20;34.77;94980.91;5018238;28;20087;-72
2021/01/03 11:30:18;;;;;;;4.95;4.00;;;;;;;27.25;34.35;94978.03;5022172;28;20041;-72
2021/01/03 11:32:43;;;;;;;5.32;4.13;;;;;;;27.21;34.39;94961.16;5023184;28;20509;-73
2021/01/03 11:35:09;;;;;;;5.10;4.22;;;;;;;27.28;33.95;94976.97;5016905;28;20030;-73
2021/01/03 11:37:35;;;;;;;4.82;3.90;;;;;;;27.29;34.33;94972.94;5030972;28;20407;-73
2021/01/03 11:40:01;;;;;;;4.63;3.78;;;;;;;27.31;34.14;94970.41;5030108;28;20071;-73
2021/01/03 11:42:31;;;;;;;5.38;4.00;;;;;;;27.32;34.32;94960.88;5024169;28;20120;-73
2021/01/03 11:44:57;;;;;;;6.50;4.60;;;;;;;27.20;34.25;94956.94;5028254;28;20042;-87
2021/01/03 11:47:23;;;;;;;5.30;4.10;;;;;;;27.28;34.41;94966.72;5010858;28;20029;-72
2021/01/03 11:49:48;;;;;;;6.53;4.05;;;;;;;27.28;34.05;94960.50;5012786;28;20056;-73
2021/01/03 11:52:14;;;;;;;5.22;3.80;;;;;;;27.25;34.62;94958.84;5016289;28;20108;-72